Traer, IA

8:41 AM CST on December 20, 2014 (GMT -0600)
Marshalltown Municipal | Change Station
CLOSE
Current Station
Airport
Location: Marshalltown,
Elevation: 971 ft
Nearby Weather Stations
Active Advisory: Special Statement

Elev 971 ft 42.11 °N, 92.92 °W | Updated 25 minutes ago

Overcast
Overcast
30 °F
Feels Like 22 °F
N
8
Wind Variable Wind from SE

Today
High -- | Low -- °F
--% Chance of Precip.
Yesterday
High -- | Low -- °F
Precip. -- in
7:34 AM 4:40 PM
Waning Crescent, 3% visible
Pressure 30.17 in
Visibility 1.8 miles
Clouds Overcast 500 ft
Windchill 22 °F
Dew Point 29 °F
Humidity 96%
Rainfall 0.00 in
Snow Depth Not available.
UV 0 out of 12
Pollen .10 out of 12
Air Quality Not available.
Flu Activity Not available.
SPECI KMIW 201416Z AUTO 14007KT 1 3/4SM BR OVC005 M01/M02 A3017 RMK AO2 CIG 003V008 T10111017

More Conditions Fewer Conditions

Pressure 30.17 in
Visibility 1.8 miles
Clouds Overcast 500 ft
Windchill 22 °F
Dew Point 29 °F
Humidity 96%
Rainfall 0.00 in
Snow Depth Not available.
UV 0 out of 12
Pollen .10 out of 12
Air Quality Not available.
Flu Activity Not available.
SPECI KMIW 201416Z AUTO 14007KT 1 3/4SM BR OVC005 M01/M02 A3017 RMK AO2 CIG 003V008 T10111017

More Conditions Fewer Conditions

10-Day Weather Forecast

Almanac

Astronomy

Dec. 20, 2014 Rise Set
Actual Time
Civil Twilight
Nautical Twilight
Astronomical Twilight
Moon
Length of Visible Light
Length of Day
Tomorrow will be .
, % of the Moon is Illuminated

Today's Extremes

State Highs State Lows

Community

WunderPhotos

Upload Photos

1,779,174 photos uploaded!

WunderBlogs® & News

Nearby

Air Quality

  Air Quality AQ Index Pollutant
Not available.

Snow Depth

Station Depth Elevation

Earthquake Activity

City Distance Mag. Time & Date
Minimum magnitude displayed is 2.5.

Coastal Water Temperatures

Place Temperature

Nearby Weather Stations